createdAt,value
2019-03-29T00:00:04.575Z,11.00
2019-03-29T00:02:37.567Z,11.00
2019-03-29T00:05:08.044Z,11.00
2019-03-29T00:07:39.785Z,11.00
2019-03-29T00:10:10.950Z,10.90
2019-03-29T00:12:41.355Z,10.90
2019-03-29T00:15:11.804Z,10.70
2019-03-29T00:17:42.239Z,10.60
2019-03-29T00:20:12.708Z,10.50
2019-03-29T00:22:43.146Z,10.20
2019-03-29T00:25:13.797Z,10.20
2019-03-29T00:27:44.241Z,10.20
2019-03-29T00:30:16.667Z,10.20
2019-03-29T00:32:47.015Z,10.10
2019-03-29T00:35:17.357Z,9.70
2019-03-29T00:37:53.784Z,9.30
2019-03-29T00:40:19.739Z,9.20
2019-03-29T00:42:50.074Z,9.30
2019-03-29T00:45:20.476Z,9.40
2019-03-29T00:47:50.827Z,9.20
2019-03-29T00:50:21.174Z,9.10
2019-03-29T00:52:51.594Z,8.80
2019-03-29T00:55:21.951Z,8.60
2019-03-29T00:57:52.363Z,8.60
2019-03-29T01:00:22.814Z,8.80
2019-03-29T01:02:53.230Z,9.10
2019-03-29T01:05:23.580Z,9.30
2019-03-29T01:08:06.959Z,9.40
2019-03-29T01:10:25.963Z,9.40
2019-03-29T01:12:56.363Z,9.40
2019-03-29T01:15:26.816Z,9.30
2019-03-29T01:17:57.212Z,9.30
2019-03-29T01:20:27.562Z,9.30
2019-03-29T01:22:58.018Z,9.30
2019-03-29T01:25:28.562Z,9.20
2019-03-29T01:27:58.990Z,9.20
2019-03-29T01:30:29.323Z,9.20
2019-03-29T01:32:59.745Z,9.20
2019-03-29T01:35:30.076Z,9.20
2019-03-29T01:38:00.502Z,9.10
2019-03-29T01:40:30.847Z,8.90
2019-03-29T01:43:01.274Z,8.40
2019-03-29T01:45:31.635Z,7.90
2019-03-29T01:48:02.072Z,7.60
2019-03-29T01:50:32.419Z,7.30
2019-03-29T01:53:04.054Z,7.00
2019-03-29T01:55:34.419Z,6.70
2019-03-29T01:58:05.122Z,6.70
2019-03-29T02:00:36.270Z,6.70
2019-03-29T02:03:07.097Z,6.70
2019-03-29T02:05:37.461Z,6.70
2019-03-29T02:08:07.860Z,6.70
2019-03-29T02:10:38.206Z,6.50
2019-03-29T02:13:08.627Z,6.60
2019-03-29T02:15:38.976Z,6.60
2019-03-29T02:18:09.391Z,6.60
2019-03-29T02:20:39.736Z,6.30
2019-03-29T02:23:10.267Z,6.20
2019-03-29T02:25:40.618Z,6.10
2019-03-29T02:28:11.026Z,5.90
2019-03-29T02:30:41.378Z,5.80
2019-03-29T02:33:11.812Z,5.70
2019-03-29T02:35:42.175Z,5.80
2019-03-29T02:38:12.591Z,5.80
2019-03-29T02:40:43.037Z,5.70
2019-03-29T02:43:13.645Z,5.70
2019-03-29T02:45:44.001Z,5.50
2019-03-29T02:48:14.462Z,5.40
2019-03-29T02:50:46.048Z,5.40
2019-03-29T02:53:16.463Z,5.40
2019-03-29T02:55:46.818Z,5.50
2019-03-29T02:58:17.247Z,5.40
2019-03-29T03:00:48.260Z,5.40
2019-03-29T03:03:19.124Z,5.50
2019-03-29T03:05:49.468Z,5.60
2019-03-29T03:08:19.872Z,5.90
2019-03-29T03:10:50.220Z,6.20
2019-03-29T03:13:20.628Z,6.10
2019-03-29T03:15:50.992Z,5.90
2019-03-29T03:18:21.392Z,5.70
2019-03-29T03:20:51.751Z,5.40
2019-03-29T03:23:22.176Z,5.20
2019-03-29T03:25:52.536Z,5.30
2019-03-29T03:28:22.978Z,5.30
2019-03-29T03:30:53.321Z,5.30
2019-03-29T03:33:23.729Z,5.10
2019-03-29T03:35:54.198Z,5.00
2019-03-29T03:38:24.618Z,5.00
2019-03-29T03:40:54.990Z,5.10
2019-03-29T03:43:25.411Z,5.20
2019-03-29T03:45:55.786Z,5.10
2019-03-29T03:48:26.199Z,5.00
2019-03-29T03:50:56.546Z,5.00
2019-03-29T03:53:26.968Z,5.20
2019-03-29T03:55:59.775Z,5.60
2019-03-29T03:58:31.303Z,5.90
2019-03-29T04:01:01.670Z,5.90
2019-03-29T04:03:32.165Z,5.60
2019-03-29T04:06:02.533Z,5.60
2019-03-29T04:08:32.960Z,5.50
2019-03-29T04:11:03.323Z,5.30
2019-03-29T04:13:33.748Z,5.40
2019-03-29T04:16:04.115Z,5.40
2019-03-29T04:18:34.632Z,5.30
2019-03-29T04:21:05.099Z,5.60
2019-03-29T04:23:35.518Z,5.90
2019-03-29T04:26:05.872Z,6.40
2019-03-29T04:28:36.295Z,6.90
2019-03-29T04:31:06.666Z,7.20
2019-03-29T04:33:37.093Z,7.40
2019-03-29T04:36:07.435Z,7.50
2019-03-29T04:38:37.985Z,7.70
2019-03-29T04:41:08.404Z,7.70
2019-03-29T04:43:38.811Z,7.70
2019-03-29T04:46:09.175Z,7.60
2019-03-29T04:48:39.594Z,7.20
2019-03-29T04:51:09.943Z,7.30
2019-03-29T04:53:40.447Z,7.30
2019-03-29T04:56:10.828Z,7.00
2019-03-29T04:58:41.244Z,6.50
2019-03-29T05:01:11.585Z,6.20
2019-03-29T05:03:42.002Z,5.90
2019-03-29T05:06:12.350Z,6.00
2019-03-29T05:08:42.771Z,6.60
2019-03-29T05:11:13.139Z,6.70
2019-03-29T05:13:43.573Z,6.70
2019-03-29T05:16:13.936Z,6.70
2019-03-29T05:18:44.348Z,6.60
2019-03-29T05:21:14.686Z,7.00
2019-03-29T05:23:45.118Z,7.30
2019-03-29T05:26:15.478Z,7.60
2019-03-29T05:28:47.099Z,7.80
2019-03-29T05:31:18.599Z,7.90
2019-03-29T05:33:49.098Z,8.00
2019-03-29T05:36:19.443Z,8.10
2019-03-29T05:38:49.871Z,8.20
2019-03-29T05:41:20.240Z,8.30
2019-03-29T05:43:50.644Z,8.30
2019-03-29T05:46:21.016Z,8.30
2019-03-29T05:48:51.440Z,8.50
2019-03-29T05:51:21.788Z,8.60
2019-03-29T05:53:52.215Z,8.80
2019-03-29T05:56:22.579Z,8.90
2019-03-29T05:58:52.975Z,9.00
2019-03-29T06:01:23.341Z,9.10
2019-03-29T06:03:53.748Z,9.20
2019-03-29T06:06:24.100Z,9.30
2019-03-29T06:08:54.502Z,9.50
2019-03-29T06:11:24.861Z,9.60
2019-03-29T06:13:55.274Z,9.70
2019-03-29T06:16:38.405Z,9.80
2019-03-29T06:18:57.737Z,9.90
2019-03-29T06:21:28.094Z,10.10
2019-03-29T06:23:58.549Z,10.50
2019-03-29T06:26:28.962Z,10.90
2019-03-29T06:28:59.454Z,11.10
2019-03-29T06:31:29.923Z,11.10
2019-03-29T06:34:00.342Z,11.50
2019-03-29T06:36:32.503Z,11.80
2019-03-29T06:39:04.831Z,12.10
2019-03-29T06:41:34.337Z,12.60
2019-03-29T06:44:05.435Z,13.50
2019-03-29T06:46:35.807Z,13.90
2019-03-29T06:49:06.242Z,14.50
2019-03-29T06:51:36.590Z,14.60
2019-03-29T06:54:07.007Z,15.50
2019-03-29T06:56:37.426Z,15.30
2019-03-29T06:59:07.856Z,14.60
2019-03-29T07:01:38.364Z,14.30
2019-03-29T07:04:08.790Z,14.20
2019-03-29T07:06:39.162Z,14.80
2019-03-29T07:09:09.620Z,15.20
2019-03-29T07:11:40.128Z,15.10
2019-03-29T07:14:10.556Z,15.00
2019-03-29T07:16:40.984Z,15.10
2019-03-29T07:19:11.443Z,15.70
2019-03-29T07:21:43.067Z,15.70
2019-03-29T07:24:13.503Z,15.70
2019-03-29T07:26:43.913Z,16.00
2019-03-29T07:29:14.359Z,16.90
2019-03-29T07:31:44.774Z,17.10
2019-03-29T07:34:15.190Z,17.10
2019-03-29T07:36:45.607Z,17.10
2019-03-29T07:39:16.036Z,16.90
2019-03-29T07:41:46.437Z,15.60
2019-03-29T07:44:16.863Z,15.10
2019-03-29T07:46:47.282Z,15.00
2019-03-29T07:49:17.703Z,14.80
2019-03-29T07:51:48.131Z,14.70
2019-03-29T07:54:18.546Z,14.60
2019-03-29T07:56:48.943Z,14.70
2019-03-29T07:59:19.371Z,14.80
2019-03-29T08:01:49.790Z,14.90
2019-03-29T08:04:21.734Z,15.00
2019-03-29T08:06:52.383Z,15.00
2019-03-29T08:09:22.975Z,15.00
2019-03-29T08:11:55.236Z,15.00
2019-03-29T08:14:25.645Z,14.90
2019-03-29T08:16:56.000Z,14.90
2019-03-29T08:19:26.408Z,15.00
2019-03-29T08:21:57.923Z,15.10
2019-03-29T08:24:28.610Z,15.10
2019-03-29T08:26:58.962Z,15.10
2019-03-29T08:29:31.394Z,15.10
2019-03-29T08:32:01.357Z,15.30
2019-03-29T08:34:35.771Z,15.40
2019-03-29T08:37:05.044Z,15.40
2019-03-29T08:39:35.470Z,15.50
2019-03-29T08:42:05.844Z,15.60
2019-03-29T08:44:37.294Z,15.90
2019-03-29T08:47:07.738Z,16.10
2019-03-29T08:49:38.150Z,16.00
2019-03-29T08:52:08.587Z,16.00
2019-03-29T08:54:38.996Z,16.20
2019-03-29T08:57:10.803Z,16.10
2019-03-29T08:59:41.630Z,16.10
2019-03-29T09:02:12.143Z,16.10
2019-03-29T09:04:43.242Z,16.00
2019-03-29T09:07:13.636Z,16.10
2019-03-29T09:09:46.399Z,16.10
2019-03-29T09:12:16.223Z,16.20
2019-03-29T09:14:46.613Z,16.30
2019-03-29T09:17:17.041Z,16.30
2019-03-29T09:19:48.761Z,16.20
2019-03-29T09:22:19.167Z,16.30
2019-03-29T09:24:49.600Z,16.30
2019-03-29T09:27:20.032Z,16.30
2019-03-29T09:29:50.384Z,16.30
2019-03-29T09:32:20.796Z,16.50
2019-03-29T09:34:51.139Z,16.60
2019-03-29T09:37:21.555Z,16.70
2019-03-29T09:39:51.895Z,16.40
2019-03-29T09:42:28.773Z,16.10
2019-03-29T09:44:54.283Z,16.00
2019-03-29T09:47:24.716Z,16.10
2019-03-29T09:49:55.141Z,15.90
2019-03-29T09:52:25.648Z,15.90
2019-03-29T09:54:56.091Z,16.00
2019-03-29T09:57:37.200Z,16.10
2019-03-29T09:59:58.564Z,16.30
2019-03-29T10:02:30.763Z,16.60
2019-03-29T10:05:01.230Z,16.70
2019-03-29T10:07:33.044Z,16.90
2019-03-29T10:10:05.955Z,17.00
2019-03-29T10:12:43.651Z,17.10
2019-03-29T10:15:10.204Z,17.30
2019-03-29T10:17:40.596Z,17.30
2019-03-29T10:20:11.362Z,17.40
2019-03-29T10:22:41.795Z,17.70
2019-03-29T10:25:19.178Z,17.80
2019-03-29T10:27:44.187Z,18.00
2019-03-29T10:30:17.487Z,18.10
2019-03-29T10:32:47.904Z,18.20
2019-03-29T10:35:18.267Z,18.30
2019-03-29T10:37:48.687Z,18.50
2019-03-29T10:40:21.594Z,18.70
2019-03-29T10:42:57.837Z,18.50
2019-03-29T10:45:23.049Z,18.50
2019-03-29T10:47:53.474Z,18.40
2019-03-29T10:50:23.835Z,18.50
2019-03-29T10:52:54.246Z,18.60
2019-03-29T10:55:24.617Z,18.80
2019-03-29T10:57:56.240Z,18.80
2019-03-29T11:00:40.194Z,19.00
2019-03-29T11:03:10.718Z,18.90
2019-03-29T11:05:42.227Z,18.90
2019-03-29T11:08:12.646Z,18.70
2019-03-29T11:10:43.050Z,18.80
2019-03-29T11:13:14.377Z,18.90
2019-03-29T11:15:45.073Z,19.20
2019-03-29T11:18:15.471Z,19.30
2019-03-29T11:20:45.889Z,19.40
2019-03-29T11:23:16.284Z,19.10
2019-03-29T11:25:48.790Z,19.00
2019-03-29T11:28:19.700Z,19.10
2019-03-29T11:30:50.110Z,19.20
2019-03-29T11:33:20.521Z,18.90
2019-03-29T11:35:50.930Z,18.80
2019-03-29T11:38:21.437Z,19.00
2019-03-29T11:40:55.877Z,19.30
2019-03-29T11:43:38.942Z,18.90
2019-03-29T11:46:14.012Z,19.20
2019-03-29T11:48:47.267Z,19.10
2019-03-29T11:51:20.227Z,19.00
2019-03-29T11:53:51.453Z,18.90
2019-03-29T11:56:23.182Z,19.20
2019-03-29T11:58:54.707Z,19.00
2019-03-29T12:01:25.104Z,19.10
2019-03-29T12:03:55.547Z,18.90
2019-03-29T12:06:25.915Z,18.70
2019-03-29T12:08:57.172Z,18.80
2019-03-29T12:11:27.835Z,18.70
2019-03-29T12:13:58.255Z,18.70
2019-03-29T12:16:28.609Z,18.80
2019-03-29T12:18:59.120Z,18.90
2019-03-29T12:21:29.480Z,19.00
2019-03-29T12:23:59.902Z,18.80
2019-03-29T12:26:30.259Z,18.90
2019-03-29T12:29:00.701Z,18.80
2019-03-29T12:31:31.055Z,18.50
2019-03-29T12:34:01.454Z,18.70
2019-03-29T12:36:31.815Z,18.60
2019-03-29T12:39:02.229Z,18.30
2019-03-29T12:41:33.070Z,18.20
2019-03-29T12:44:03.486Z,18.30
2019-03-29T12:46:33.834Z,18.40
2019-03-29T12:49:04.358Z,18.40
2019-03-29T12:51:34.698Z,18.50
2019-03-29T12:54:05.604Z,18.20
2019-03-29T12:56:35.975Z,18.10
2019-03-29T12:59:06.397Z,18.20
2019-03-29T13:01:39.814Z,18.10
2019-03-29T13:04:09.872Z,18.00
2019-03-29T13:06:40.471Z,17.90
2019-03-29T13:09:10.936Z,18.20
2019-03-29T13:11:41.425Z,18.30
2019-03-29T13:14:11.836Z,18.40
2019-03-29T13:16:42.200Z,18.50
2019-03-29T13:19:12.631Z,18.40
2019-03-29T13:21:43.213Z,18.20
2019-03-29T13:24:16.028Z,17.90
2019-03-29T13:26:45.607Z,17.80
2019-03-29T13:29:16.024Z,17.70
2019-03-29T13:31:47.463Z,17.80
2019-03-29T13:34:17.916Z,18.10
2019-03-29T13:36:48.272Z,18.20
2019-03-29T13:39:18.700Z,18.40
2019-03-29T13:41:49.069Z,18.50
2019-03-29T13:44:23.942Z,18.40
2019-03-29T13:46:51.458Z,18.40
2019-03-29T13:49:21.865Z,18.50
2019-03-29T13:51:52.240Z,18.10
2019-03-29T13:54:22.660Z,18.10
2019-03-29T13:56:53.092Z,18.00
2019-03-29T13:59:23.501Z,17.90
2019-03-29T14:01:53.900Z,17.90
2019-03-29T14:04:24.311Z,17.90
2019-03-29T14:06:54.725Z,17.90
2019-03-29T14:09:25.149Z,17.80
2019-03-29T14:11:55.555Z,18.00
2019-03-29T14:14:37.624Z,18.20
2019-03-29T14:16:58.024Z,18.40
2019-03-29T14:19:28.442Z,18.40
2019-03-29T14:22:00.140Z,18.60
2019-03-29T14:24:30.531Z,18.80
2019-03-29T14:27:00.921Z,18.90
2019-03-29T14:29:31.352Z,18.90
2019-03-29T14:32:01.769Z,18.90
2019-03-29T14:34:32.156Z,18.80
2019-03-29T14:37:02.584Z,18.80
2019-03-29T14:39:32.989Z,18.70
2019-03-29T14:42:03.395Z,18.80
2019-03-29T14:44:33.755Z,18.80
2019-03-29T14:47:04.163Z,18.70
2019-03-29T14:49:34.522Z,18.80
2019-03-29T14:52:05.042Z,18.80
2019-03-29T14:54:35.408Z,18.70
2019-03-29T14:57:05.859Z,18.80
2019-03-29T14:59:36.280Z,18.90
2019-03-29T15:02:06.691Z,18.80
2019-03-29T15:04:37.110Z,18.80
2019-03-29T15:07:07.518Z,18.90
2019-03-29T15:09:37.936Z,19.00
2019-03-29T15:12:08.372Z,19.00
2019-03-29T15:14:38.781Z,19.00
2019-03-29T15:17:11.514Z,19.00
2019-03-29T15:19:41.924Z,19.00
2019-03-29T15:22:12.350Z,18.80
2019-03-29T15:24:42.767Z,18.40
2019-03-29T15:27:13.267Z,18.40
2019-03-29T15:29:43.694Z,18.20
2019-03-29T15:32:14.124Z,18.20
2019-03-29T15:34:44.517Z,18.30
2019-03-29T15:37:14.939Z,18.50
2019-03-29T15:39:45.348Z,18.60
2019-03-29T15:42:15.779Z,18.70
2019-03-29T15:44:46.120Z,18.80
2019-03-29T15:47:16.548Z,18.70
2019-03-29T15:49:55.935Z,18.70
2019-03-29T15:52:18.961Z,18.60
2019-03-29T15:54:49.326Z,18.70
2019-03-29T15:57:19.747Z,18.70
2019-03-29T15:59:50.109Z,18.70
2019-03-29T16:02:20.652Z,18.70
2019-03-29T16:04:51.061Z,18.60
2019-03-29T16:07:21.408Z,18.50
2019-03-29T16:09:51.839Z,18.50
2019-03-29T16:12:22.219Z,18.50
2019-03-29T16:14:52.646Z,18.40
2019-03-29T16:17:23.067Z,18.40
2019-03-29T16:19:53.467Z,18.40
2019-03-29T16:22:23.877Z,18.30
2019-03-29T16:24:54.311Z,18.30
2019-03-29T16:27:25.307Z,18.30
2019-03-29T16:29:56.160Z,18.20
2019-03-29T16:32:26.554Z,18.20
2019-03-29T16:34:56.990Z,18.10
2019-03-29T16:37:27.389Z,18.00
2019-03-29T16:39:57.796Z,17.90
2019-03-29T16:42:28.224Z,17.90
2019-03-29T16:44:58.636Z,17.80
2019-03-29T16:47:29.062Z,17.80
2019-03-29T16:49:59.492Z,17.70
2019-03-29T16:52:29.900Z,17.60
2019-03-29T16:55:13.181Z,17.50
2019-03-29T16:57:45.081Z,17.50
2019-03-29T17:00:16.516Z,17.50
2019-03-29T17:02:46.951Z,17.40
2019-03-29T17:05:22.973Z,17.30
2019-03-29T17:08:00.182Z,17.10
2019-03-29T17:10:37.235Z,17.10
2019-03-29T17:13:08.807Z,16.90
2019-03-29T17:15:39.161Z,16.80
2019-03-29T17:18:09.591Z,16.70
2019-03-29T17:20:39.965Z,16.70
2019-03-29T17:23:14.506Z,16.60
2019-03-29T17:25:45.548Z,16.50
2019-03-29T17:28:15.987Z,16.30
2019-03-29T17:30:50.903Z,16.20
2019-03-29T17:33:22.634Z,16.10
2019-03-29T17:35:53.203Z,16.00
2019-03-29T17:38:23.637Z,15.90
2019-03-29T17:40:54.035Z,15.60
2019-03-29T17:43:24.463Z,15.60
2019-03-29T17:45:54.835Z,15.50
2019-03-29T17:48:25.279Z,15.30
2019-03-29T17:50:55.649Z,15.10
2019-03-29T17:53:26.072Z,14.80
2019-03-29T17:55:56.451Z,14.70
2019-03-29T17:58:28.086Z,14.60
2019-03-29T18:00:58.439Z,14.50
2019-03-29T18:03:28.891Z,14.40
2019-03-29T18:05:59.344Z,14.40
2019-03-29T18:08:29.760Z,14.30
2019-03-29T18:11:00.178Z,14.00
2019-03-29T18:13:30.601Z,13.90
2019-03-29T18:16:01.036Z,13.70
2019-03-29T18:18:32.504Z,13.60
2019-03-29T18:21:02.917Z,13.50
2019-03-29T18:23:33.291Z,13.20
2019-03-29T18:26:03.727Z,13.10
2019-03-29T18:28:37.881Z,13.10
2019-03-29T18:31:07.846Z,13.00
2019-03-29T18:33:38.226Z,12.90
2019-03-29T18:36:08.760Z,12.70
2019-03-29T18:38:40.668Z,12.40
2019-03-29T18:41:11.094Z,12.30
2019-03-29T18:43:41.508Z,12.30
2019-03-29T18:46:11.939Z,12.20
2019-03-29T18:48:42.340Z,12.10
2019-03-29T18:51:12.755Z,12.10
2019-03-29T18:53:43.160Z,12.40
2019-03-29T18:56:13.584Z,12.20
2019-03-29T18:58:44.014Z,11.90
2019-03-29T19:01:14.446Z,11.70
2019-03-29T19:03:44.852Z,11.60
2019-03-29T19:06:15.288Z,11.40
2019-03-29T19:08:45.692Z,11.10
2019-03-29T19:11:16.128Z,11.10
2019-03-29T19:13:46.545Z,11.00
2019-03-29T19:16:16.960Z,10.90
2019-03-29T19:18:47.391Z,10.80
2019-03-29T19:21:17.807Z,10.70
2019-03-29T19:23:48.245Z,10.70
2019-03-29T19:26:18.759Z,10.60
2019-03-29T19:28:49.190Z,10.70
2019-03-29T19:31:20.300Z,10.60
2019-03-29T19:33:52.462Z,10.90
2019-03-29T19:36:22.895Z,10.80
2019-03-29T19:38:53.304Z,10.70
2019-03-29T19:41:23.723Z,10.80
2019-03-29T19:43:54.234Z,10.60
2019-03-29T19:46:25.046Z,10.40
2019-03-29T19:48:55.444Z,10.30
2019-03-29T19:51:25.860Z,10.30
2019-03-29T19:54:06.691Z,10.60
2019-03-29T19:56:28.352Z,10.90
2019-03-29T19:58:58.766Z,10.70
2019-03-29T20:01:29.172Z,10.70
2019-03-29T20:03:59.619Z,10.70
2019-03-29T20:06:30.023Z,10.90
2019-03-29T20:09:01.291Z,10.80
2019-03-29T20:11:33.407Z,10.80
2019-03-29T20:14:03.822Z,10.90
2019-03-29T20:16:34.232Z,11.30
2019-03-29T20:19:04.604Z,11.40
2019-03-29T20:21:35.050Z,11.20
2019-03-29T20:24:05.586Z,10.80
2019-03-29T20:26:36.108Z,10.30
2019-03-29T20:29:06.472Z,10.00
2019-03-29T20:31:36.899Z,10.10
2019-03-29T20:34:07.270Z,10.50
2019-03-29T20:36:37.629Z,10.40
2019-03-29T20:39:08.798Z,10.40
2019-03-29T20:41:39.448Z,10.40
2019-03-29T20:44:09.876Z,10.30
2019-03-29T20:46:40.249Z,10.10
2019-03-29T20:49:10.662Z,9.90
2019-03-29T20:51:41.004Z,9.60
2019-03-29T20:54:11.416Z,9.40
2019-03-29T20:56:41.780Z,9.50
2019-03-29T20:59:12.198Z,9.40
2019-03-29T21:01:42.659Z,9.20
2019-03-29T21:04:13.091Z,9.20
2019-03-29T21:06:43.435Z,9.40
2019-03-29T21:09:13.841Z,9.20
2019-03-29T21:11:44.264Z,9.00
2019-03-29T21:14:14.680Z,9.00
2019-03-29T21:16:45.091Z,8.90
2019-03-29T21:19:16.534Z,9.00
2019-03-29T21:21:46.952Z,9.00
2019-03-29T21:24:17.344Z,9.00
2019-03-29T21:26:47.760Z,8.90
2019-03-29T21:29:18.182Z,9.00
2019-03-29T21:31:48.594Z,8.70
2019-03-29T21:34:19.058Z,8.60
2019-03-29T21:36:49.503Z,8.50
2019-03-29T21:39:19.872Z,8.40
2019-03-29T21:41:50.459Z,8.40
2019-03-29T21:44:22.067Z,8.30
2019-03-29T21:46:52.484Z,8.40
2019-03-29T21:49:22.842Z,8.40
2019-03-29T21:51:53.262Z,8.30
2019-03-29T21:54:23.608Z,8.40
2019-03-29T21:56:54.020Z,8.30
2019-03-29T21:59:25.202Z,8.20
2019-03-29T22:01:56.088Z,8.20
2019-03-29T22:04:26.434Z,8.00
2019-03-29T22:06:56.906Z,8.00
2019-03-29T22:09:36.826Z,8.00
2019-03-29T22:11:59.311Z,7.90
2019-03-29T22:14:29.801Z,7.80
2019-03-29T22:17:00.221Z,7.80
2019-03-29T22:19:30.581Z,7.80
2019-03-29T22:22:01.004Z,7.70
2019-03-29T22:24:31.365Z,7.70
2019-03-29T22:27:01.777Z,7.80
2019-03-29T22:29:32.112Z,7.80
2019-03-29T22:32:02.729Z,7.80
2019-03-29T22:34:33.125Z,8.10
2019-03-29T22:37:03.537Z,8.40
2019-03-29T22:39:33.882Z,8.20
2019-03-29T22:42:04.295Z,7.90
2019-03-29T22:44:34.644Z,7.70
2019-03-29T22:47:05.075Z,7.50
2019-03-29T22:49:35.678Z,7.40
2019-03-29T22:52:06.118Z,7.50
2019-03-29T22:54:36.475Z,7.70
2019-03-29T22:57:06.871Z,8.10
2019-03-29T22:59:37.215Z,8.20
2019-03-29T23:02:07.726Z,8.00
2019-03-29T23:04:38.084Z,8.40
2019-03-29T23:07:08.491Z,8.80
2019-03-29T23:09:38.857Z,9.10
2019-03-29T23:12:09.333Z,9.20
2019-03-29T23:14:39.720Z,9.10
2019-03-29T23:17:10.124Z,9.10
2019-03-29T23:19:40.487Z,9.10
2019-03-29T23:22:10.916Z,9.30
2019-03-29T23:24:41.256Z,9.30
2019-03-29T23:27:11.772Z,9.30
2019-03-29T23:29:43.341Z,9.30
2019-03-29T23:32:13.736Z,9.20
2019-03-29T23:34:44.255Z,9.10
2019-03-29T23:37:14.664Z,9.00
2019-03-29T23:39:45.011Z,8.70
2019-03-29T23:42:16.732Z,8.50
2019-03-29T23:44:47.322Z,8.10
2019-03-29T23:47:17.728Z,7.80
2019-03-29T23:49:48.094Z,7.70
2019-03-29T23:52:18.522Z,7.70
2019-03-29T23:54:48.964Z,7.80
2019-03-29T23:57:19.488Z,8.10
2019-03-29T23:59:49.828Z,8.50
